You are listening to:
EPBY Tower - Bydgoszcz, Poland

EPBY 221900Z 24018G30KT 9999 BKN037 OVC042 10/01 Q1008

If stream does not start automatically press the play button